createdAt,value
2023-01-01T00:02:19.138Z,75.78
2023-01-01T00:04:45.443Z,75.67
2023-01-01T00:07:11.730Z,75.63
2023-01-01T00:09:38.088Z,75.24
2023-01-01T00:12:04.811Z,74.96
2023-01-01T00:14:31.096Z,74.78
2023-01-01T00:16:57.495Z,75.29
2023-01-01T00:19:23.919Z,74.96
2023-01-01T00:21:50.212Z,75.00
2023-01-01T00:24:16.494Z,75.20
2023-01-01T00:26:42.926Z,74.70
2023-01-01T00:29:09.234Z,75.24
2023-01-01T00:31:35.533Z,74.31
2023-01-01T00:34:01.922Z,74.43
2023-01-01T00:36:29.502Z,75.15
2023-01-01T00:38:56.488Z,74.67
2023-01-01T00:41:23.035Z,74.44
2023-01-01T00:43:49.383Z,75.16
2023-01-01T00:46:15.864Z,75.00
2023-01-01T00:48:42.297Z,75.55
2023-01-01T00:51:08.703Z,75.61
2023-01-01T00:53:35.049Z,75.90
2023-01-01T00:56:01.644Z,76.00
2023-01-01T00:58:28.179Z,75.66
2023-01-01T01:00:54.532Z,75.89
2023-01-01T01:03:21.308Z,75.94
2023-01-01T01:05:47.774Z,76.14
2023-01-01T01:08:14.050Z,76.51
2023-01-01T01:10:40.486Z,75.89
2023-01-01T01:13:07.092Z,77.19
2023-01-01T01:15:33.555Z,76.29
2023-01-01T01:17:59.897Z,77.25
2023-01-01T01:20:26.195Z,77.28
2023-01-01T01:22:52.484Z,77.22
2023-01-01T01:25:18.845Z,77.43
2023-01-01T01:27:45.284Z,77.67
2023-01-01T01:30:11.996Z,77.42
2023-01-01T01:32:38.421Z,77.99
2023-01-01T01:35:05.164Z,77.96
2023-01-01T01:37:31.546Z,78.54
2023-01-01T01:39:57.913Z,78.09
2023-01-01T01:42:24.287Z,77.63
2023-01-01T01:44:59.543Z,78.78
2023-01-01T01:47:27.957Z,78.70
2023-01-01T01:49:58.249Z,78.55
2023-01-01T01:52:26.412Z,78.22
2023-01-01T01:54:53.693Z,79.46
2023-01-01T01:57:21.373Z,78.68
2023-01-01T01:59:50.899Z,78.28
2023-01-01T02:02:31.619Z,77.33
2023-01-01T02:04:58.653Z,77.37
2023-01-01T02:07:28.220Z,77.22
2023-01-01T02:09:54.948Z,76.56
2023-01-01T02:12:21.277Z,76.05
2023-01-01T02:14:47.983Z,75.99
2023-01-01T02:17:39.711Z,76.56
2023-01-01T02:20:24.736Z,76.04
2023-01-01T02:23:17.023Z,76.23
2023-01-01T02:26:08.675Z,76.89
2023-01-01T02:28:50.465Z,76.43
2023-01-01T02:31:24.735Z,76.24
2023-01-01T02:33:54.326Z,76.62
2023-01-01T02:36:24.701Z,76.36
2023-01-01T02:38:55.478Z,77.21
2023-01-01T02:41:27.242Z,76.92
2023-01-01T02:43:54.128Z,77.21
2023-01-01T02:48:53.000Z,77.32
2023-01-01T02:51:29.174Z,77.53
2023-01-01T02:54:08.244Z,76.67
2023-01-01T02:56:46.453Z,77.02
2023-01-01T02:59:37.293Z,77.15
2023-01-01T03:02:18.280Z,76.93
2023-01-01T03:05:03.643Z,76.87
2023-01-01T03:07:40.957Z,77.05
2023-01-01T03:10:51.996Z,76.17
2023-01-01T03:13:49.830Z,76.63
2023-01-01T03:16:23.723Z,75.90
2023-01-01T03:19:19.095Z,76.21
2023-01-01T03:21:57.904Z,75.89
2023-01-01T03:24:34.805Z,75.23
2023-01-01T03:27:06.636Z,76.05
2023-01-01T03:29:38.805Z,75.44
2023-01-01T03:32:07.448Z,75.32
2023-01-01T03:34:38.262Z,75.26
2023-01-01T03:37:10.676Z,76.15
2023-01-01T03:39:43.302Z,75.53
2023-01-01T03:42:34.724Z,74.90
2023-01-01T03:45:23.634Z,75.61
2023-01-01T03:47:50.250Z,75.97
2023-01-01T03:50:17.421Z,76.36
2023-01-01T03:53:03.978Z,76.42
2023-01-01T03:55:50.149Z,75.60
2023-01-01T03:58:26.615Z,75.83
2023-01-01T04:01:01.466Z,76.46
2023-01-01T04:03:31.089Z,75.85
2023-01-01T04:05:57.543Z,76.54
2023-01-01T04:08:24.228Z,76.45
2023-01-01T04:10:54.971Z,76.35
2023-01-01T04:13:21.434Z,75.83
2023-01-01T04:15:47.929Z,75.68
2023-01-01T04:18:14.262Z,75.09
2023-01-01T04:20:40.602Z,74.66
2023-01-01T04:23:06.935Z,74.84
2023-01-01T04:25:33.341Z,75.05
2023-01-01T04:27:59.626Z,74.94
2023-01-01T04:30:25.927Z,74.51
2023-01-01T04:32:52.230Z,75.27
2023-01-01T04:35:18.701Z,74.67
2023-01-01T04:37:45.089Z,74.77
2023-01-01T04:40:12.627Z,74.85
2023-01-01T04:42:38.951Z,74.25
2023-01-01T04:45:06.205Z,75.34
2023-01-01T04:47:32.766Z,74.19
2023-01-01T04:49:59.074Z,74.52
2023-01-01T04:52:25.358Z,74.40
2023-01-01T04:54:51.652Z,74.50
2023-01-01T04:57:17.949Z,75.59
2023-01-01T04:59:44.245Z,75.63
2023-01-01T05:02:10.694Z,75.30
2023-01-01T05:04:37.060Z,75.97
2023-01-01T05:07:03.338Z,74.93
2023-01-01T05:09:29.735Z,75.61
2023-01-01T05:11:56.219Z,75.73
2023-01-01T05:14:22.747Z,75.94
2023-01-01T05:16:49.870Z,75.85
2023-01-01T05:19:16.233Z,76.05
2023-01-01T05:21:42.521Z,75.88
2023-01-01T05:24:10.330Z,76.05
2023-01-01T05:26:39.320Z,76.18
2023-01-01T05:29:11.919Z,75.36
2023-01-01T05:31:42.366Z,75.48
2023-01-01T05:36:36.522Z,76.31
2023-01-01T05:39:02.954Z,75.83
2023-01-01T05:41:29.272Z,76.14
2023-01-01T05:43:55.553Z,76.22
2023-01-01T05:46:24.202Z,76.30
2023-01-01T05:48:52.794Z,76.96
2023-01-01T05:51:29.775Z,76.61
2023-01-01T05:53:57.497Z,76.78
2023-01-01T05:56:24.677Z,77.03
2023-01-01T05:58:51.087Z,76.32
2023-01-01T06:01:26.210Z,76.19
2023-01-01T06:03:56.918Z,76.90
2023-01-01T06:06:26.015Z,76.12
2023-01-01T06:08:54.756Z,76.83
2023-01-01T06:11:21.481Z,76.40
2023-01-01T06:13:48.322Z,76.84
2023-01-01T06:16:14.965Z,76.87
2023-01-01T06:18:41.450Z,76.92
2023-01-01T06:21:14.703Z,77.76
2023-01-01T06:23:41.491Z,77.60
2023-01-01T06:26:10.921Z,77.72
2023-01-01T06:28:38.135Z,77.47
2023-01-01T06:31:06.678Z,78.20
2023-01-01T06:33:33.527Z,77.79
2023-01-01T06:36:04.011Z,77.48
2023-01-01T06:38:34.729Z,77.91
2023-01-01T06:41:03.791Z,77.85
2023-01-01T06:43:32.261Z,77.89
2023-01-01T06:46:00.023Z,78.45
2023-01-01T06:48:28.218Z,78.41
2023-01-01T06:50:54.655Z,78.48
2023-01-01T06:53:24.235Z,78.68
2023-01-01T06:55:55.056Z,78.23
2023-01-01T06:58:23.378Z,78.00
2023-01-01T07:00:49.703Z,77.82
2023-01-01T07:03:16.290Z,77.91
2023-01-01T07:05:42.728Z,77.71
2023-01-01T07:08:09.040Z,77.51
2023-01-01T07:10:35.344Z,77.66
2023-01-01T07:13:01.788Z,78.13
2023-01-01T07:15:28.280Z,77.68
2023-01-01T07:17:54.674Z,78.31
2023-01-01T07:20:21.109Z,77.40
2023-01-01T07:22:47.432Z,76.92
2023-01-01T07:25:15.117Z,77.23
2023-01-01T07:27:41.412Z,76.82
2023-01-01T07:30:09.682Z,76.36
2023-01-01T07:32:36.124Z,76.75
2023-01-01T07:35:02.420Z,76.23
2023-01-01T07:37:28.702Z,76.79
2023-01-01T07:39:55.051Z,76.18
2023-01-01T07:42:21.344Z,76.66
2023-01-01T07:44:47.629Z,75.67
2023-01-01T07:47:27.102Z,75.11
2023-01-01T07:49:53.500Z,75.52
2023-01-01T07:52:20.235Z,75.50
2023-01-01T07:54:46.549Z,75.00
2023-01-01T07:57:12.839Z,75.07
2023-01-01T07:59:39.153Z,75.56
2023-01-01T08:02:05.636Z,74.94
2023-01-01T08:04:32.071Z,74.87
2023-01-01T08:06:58.351Z,74.75
2023-01-01T08:09:24.682Z,74.72
2023-01-01T08:11:50.989Z,74.59
2023-01-01T08:14:17.283Z,73.97
2023-01-01T08:16:43.620Z,73.94
2023-01-01T08:19:09.963Z,73.99
2023-01-01T08:21:36.266Z,74.18
2023-01-01T08:24:02.611Z,74.35
2023-01-01T08:26:31.893Z,73.51
2023-01-01T08:28:58.839Z,73.97
2023-01-01T08:31:25.601Z,73.04
2023-01-01T08:33:52.058Z,73.28
2023-01-01T08:36:18.512Z,73.14
2023-01-01T08:38:44.812Z,73.18
2023-01-01T08:41:11.218Z,72.48
2023-01-01T08:43:37.526Z,72.20
2023-01-01T08:46:04.137Z,72.06
2023-01-01T08:48:31.136Z,71.72
2023-01-01T08:50:59.398Z,71.07
2023-01-01T08:53:27.455Z,71.52
2023-01-01T08:56:05.544Z,69.43
2023-01-01T08:58:32.402Z,70.41
2023-01-01T09:00:59.051Z,71.27
2023-01-01T09:03:25.821Z,70.86
2023-01-01T09:05:52.717Z,70.92
2023-01-01T09:08:19.654Z,70.85
2023-01-01T09:10:46.389Z,70.79
2023-01-01T09:13:18.395Z,70.42
2023-01-01T09:15:44.821Z,70.63
2023-01-01T09:18:11.816Z,70.65
2023-01-01T09:20:38.504Z,71.02
2023-01-01T09:23:06.306Z,70.49
2023-01-01T09:25:33.561Z,70.78
2023-01-01T09:28:01.154Z,70.19
2023-01-01T09:30:27.615Z,70.88
2023-01-01T09:32:53.906Z,70.44
2023-01-01T09:35:20.398Z,70.41
2023-01-01T09:37:47.400Z,70.22
2023-01-01T09:40:36.565Z,69.66
2023-01-01T09:43:15.550Z,69.72
2023-01-01T09:46:01.720Z,69.05
2023-01-01T09:48:31.308Z,69.81
2023-01-01T09:51:00.188Z,69.76
2023-01-01T09:53:34.901Z,69.30
2023-01-01T09:56:03.772Z,69.24
2023-01-01T09:58:36.241Z,67.54
2023-01-01T10:01:24.507Z,68.85
2023-01-01T10:04:04.455Z,65.89
2023-01-01T10:06:34.493Z,65.70
2023-01-01T10:09:13.724Z,64.46
2023-01-01T10:12:12.672Z,63.48
2023-01-01T10:14:47.331Z,63.57
2023-01-01T10:17:33.006Z,63.49
2023-01-01T10:20:07.322Z,62.86
2023-01-01T10:22:38.728Z,64.43
2023-01-01T10:25:17.790Z,62.68
2023-01-01T10:27:55.537Z,63.88
2023-01-01T10:30:28.024Z,62.15
2023-01-01T10:32:55.948Z,63.96
2023-01-01T10:35:31.062Z,62.37
2023-01-01T10:38:02.267Z,61.84
2023-01-01T10:40:29.753Z,64.07
2023-01-01T10:42:58.966Z,62.94
2023-01-01T10:45:32.443Z,62.44
2023-01-01T10:48:24.766Z,62.13
2023-01-01T10:51:05.826Z,62.65
2023-01-01T10:53:35.159Z,63.55
2023-01-01T10:56:15.438Z,63.18
2023-01-01T10:58:44.985Z,62.93
2023-01-01T11:01:25.114Z,60.53
2023-01-01T11:03:54.283Z,61.35
2023-01-01T11:06:24.513Z,61.75
2023-01-01T11:08:54.093Z,61.65
2023-01-01T11:11:32.639Z,60.89
2023-01-01T11:14:01.682Z,61.94
2023-01-01T11:16:29.155Z,61.70
2023-01-01T11:19:14.208Z,59.85
2023-01-01T11:21:47.383Z,60.89
2023-01-01T11:24:18.567Z,60.71
2023-01-01T11:26:50.580Z,60.23
2023-01-01T11:29:20.453Z,61.18
2023-01-01T11:31:47.635Z,61.83
2023-01-01T11:34:34.915Z,59.32
2023-01-01T11:37:14.392Z,61.04
2023-01-01T11:39:49.461Z,60.63
2023-01-01T11:42:22.332Z,61.33
2023-01-01T11:44:54.188Z,61.41
2023-01-01T11:47:38.178Z,61.71
2023-01-01T11:50:13.557Z,60.06
2023-01-01T11:52:45.548Z,59.85
2023-01-01T11:55:23.591Z,59.89
2023-01-01T11:58:06.524Z,60.23
2023-01-01T12:00:36.405Z,61.24
2023-01-01T12:03:28.163Z,59.64
2023-01-01T12:06:08.779Z,59.67
2023-01-01T12:08:42.094Z,61.06
2023-01-01T12:11:21.909Z,59.63
2023-01-01T12:13:54.123Z,60.89
2023-01-01T12:16:27.233Z,60.59
2023-01-01T12:19:04.365Z,60.93
2023-01-01T12:21:34.684Z,61.34
2023-01-01T12:24:01.178Z,60.87
2023-01-01T12:26:45.790Z,60.36
2023-01-01T12:29:36.961Z,60.40
2023-01-01T12:32:06.734Z,61.02
2023-01-01T12:34:51.704Z,60.25
2023-01-01T12:37:45.126Z,59.77
2023-01-01T12:40:38.287Z,58.76
2023-01-01T12:43:10.839Z,60.33
2023-01-01T12:45:52.360Z,60.73
2023-01-01T12:48:30.690Z,59.40
2023-01-01T12:51:20.741Z,59.23
2023-01-01T12:54:30.678Z,59.19
2023-01-01T12:57:09.104Z,60.68
2023-01-01T12:59:41.049Z,60.13
2023-01-01T13:02:28.455Z,58.84
2023-01-01T13:05:03.175Z,58.69
2023-01-01T13:07:40.968Z,57.80
2023-01-01T13:10:23.911Z,57.73
2023-01-01T13:12:52.952Z,58.88
2023-01-01T13:15:37.486Z,56.99
2023-01-01T13:18:07.535Z,59.65
2023-01-01T13:20:40.851Z,57.71
2023-01-01T13:23:27.138Z,57.65
2023-01-01T13:26:19.414Z,58.70
2023-01-01T13:28:57.981Z,57.98
2023-01-01T13:31:39.891Z,59.37
2023-01-01T13:34:31.359Z,58.62
2023-01-01T13:37:12.762Z,57.88
2023-01-01T13:39:55.540Z,58.97
2023-01-01T13:42:52.256Z,59.56
2023-01-01T13:46:10.078Z,59.18
2023-01-01T13:48:43.733Z,59.68
2023-01-01T13:52:02.860Z,58.93
2023-01-01T13:54:26.835Z,59.68
2023-01-01T13:57:32.297Z,59.27
2023-01-01T14:00:07.381Z,60.24
2023-01-01T14:02:43.129Z,59.94
2023-01-01T14:05:09.554Z,60.40
2023-01-01T14:07:53.547Z,59.76
2023-01-01T14:10:22.377Z,60.57
2023-01-01T14:12:49.752Z,61.04
2023-01-01T14:15:29.238Z,60.67
2023-01-01T14:17:58.807Z,60.85
2023-01-01T14:20:31.550Z,60.76
2023-01-01T14:23:05.223Z,60.82
2023-01-01T14:25:31.598Z,60.35
2023-01-01T14:27:59.027Z,60.57
2023-01-01T14:30:26.036Z,60.63
2023-01-01T14:32:59.925Z,60.95
2023-01-01T14:35:27.582Z,60.82
2023-01-01T14:37:53.942Z,60.99
2023-01-01T14:40:26.215Z,60.15
2023-01-01T14:42:56.900Z,61.18
2023-01-01T14:45:24.160Z,60.70
2023-01-01T14:47:51.552Z,60.10
2023-01-01T14:50:25.311Z,61.28
2023-01-01T14:53:00.855Z,60.92
2023-01-01T14:55:32.823Z,61.32
2023-01-01T14:58:00.782Z,61.49
2023-01-01T15:00:30.235Z,61.22
2023-01-01T15:03:05.633Z,61.34
2023-01-01T15:05:36.168Z,61.52
2023-01-01T15:08:06.435Z,61.50
2023-01-01T15:10:35.921Z,62.01
2023-01-01T15:13:05.080Z,61.91
2023-01-01T15:15:53.061Z,62.20
2023-01-01T15:18:39.617Z,62.67
2023-01-01T15:21:12.984Z,62.63
2023-01-01T15:23:40.183Z,62.98
2023-01-01T15:26:09.062Z,63.07
2023-01-01T15:28:36.846Z,63.41
2023-01-01T15:31:03.307Z,63.75
2023-01-01T15:33:29.664Z,63.77
2023-01-01T15:35:56.136Z,64.06
2023-01-01T15:38:26.436Z,64.15
2023-01-01T15:40:54.016Z,64.42
2023-01-01T15:43:25.510Z,64.39
2023-01-01T15:46:10.524Z,64.47
2023-01-01T15:48:46.475Z,65.24
2023-01-01T15:51:17.780Z,65.18
2023-01-01T15:53:51.478Z,65.51
2023-01-01T15:56:18.667Z,65.65
2023-01-01T15:58:51.240Z,66.47
2023-01-01T16:01:24.218Z,66.20
2023-01-01T16:03:57.538Z,66.49
2023-01-01T16:06:23.857Z,66.94
2023-01-01T16:08:50.282Z,67.08
2023-01-01T16:11:16.605Z,67.75
2023-01-01T16:13:43.164Z,67.40
2023-01-01T16:16:36.429Z,67.29
2023-01-01T16:19:02.887Z,67.37
2023-01-01T16:21:31.016Z,67.44
2023-01-01T16:23:57.425Z,67.94
2023-01-01T16:26:23.717Z,68.04
2023-01-01T16:28:50.530Z,67.90
2023-01-01T16:31:26.743Z,68.16
2023-01-01T16:33:55.559Z,67.87
2023-01-01T16:36:22.900Z,67.63
2023-01-01T16:38:49.235Z,68.23
2023-01-01T16:41:17.653Z,67.99
2023-01-01T16:43:45.059Z,67.93
2023-01-01T16:46:13.612Z,68.94
2023-01-01T16:48:40.776Z,68.00
2023-01-01T16:51:07.740Z,68.98
2023-01-01T16:53:36.474Z,68.67
2023-01-01T16:56:02.792Z,69.15
2023-01-01T17:01:15.777Z,69.36
2023-01-01T17:03:42.148Z,70.03
2023-01-01T17:06:10.388Z,69.53
2023-01-01T17:08:37.716Z,70.37
2023-01-01T17:11:10.038Z,70.33
2023-01-01T17:13:36.894Z,70.63
2023-01-01T17:16:03.434Z,70.49
2023-01-01T17:18:55.361Z,70.32
2023-01-01T17:21:17.116Z,70.75
2023-01-01T17:23:43.522Z,70.64
2023-01-01T17:26:10.869Z,71.26
2023-01-01T17:28:37.553Z,71.31
2023-01-01T17:31:06.036Z,71.11
2023-01-01T17:33:33.246Z,71.29
2023-01-01T17:35:59.669Z,70.98
2023-01-01T17:38:26.094Z,71.11
2023-01-01T17:40:52.437Z,71.38
2023-01-01T17:43:19.227Z,71.64
2023-01-01T17:45:45.684Z,71.49
2023-01-01T17:48:12.030Z,72.89
2023-01-01T17:50:38.321Z,72.22
2023-01-01T17:53:09.157Z,73.83
2023-01-01T17:55:38.404Z,73.41
2023-01-01T17:58:04.703Z,72.81
2023-01-01T18:00:31.092Z,73.63
2023-01-01T18:02:57.450Z,73.95
2023-01-01T18:05:23.853Z,73.03
2023-01-01T18:07:51.676Z,73.47
2023-01-01T18:10:18.026Z,73.28
2023-01-01T18:12:44.352Z,74.42
2023-01-01T18:15:10.774Z,73.47
2023-01-01T18:17:37.096Z,73.75
2023-01-01T18:20:03.763Z,73.39
2023-01-01T18:22:30.072Z,72.97
2023-01-01T18:24:56.460Z,73.12
2023-01-01T18:27:22.864Z,72.85
2023-01-01T18:29:49.199Z,73.21
2023-01-01T18:32:15.572Z,74.20
2023-01-01T18:34:41.977Z,73.57
2023-01-01T18:37:08.272Z,73.01
2023-01-01T18:39:34.605Z,74.50
2023-01-01T18:42:14.718Z,74.27
2023-01-01T18:44:41.064Z,73.98
2023-01-01T18:47:07.328Z,74.10
2023-01-01T18:49:36.612Z,75.15
2023-01-01T18:52:06.139Z,75.71
2023-01-01T18:54:33.506Z,75.00
2023-01-01T18:57:18.695Z,77.14
2023-01-01T18:59:47.765Z,76.04
2023-01-01T19:02:38.127Z,76.77
2023-01-01T19:05:17.145Z,77.02
2023-01-01T19:08:04.781Z,75.77
2023-01-01T19:10:40.142Z,76.02
2023-01-01T19:13:29.300Z,76.54
2023-01-01T19:16:24.230Z,78.02
2023-01-01T19:18:50.923Z,76.60
2023-01-01T19:21:22.721Z,76.80
2023-01-01T19:23:58.619Z,77.38
2023-01-01T19:26:36.766Z,77.44
2023-01-01T19:29:18.466Z,76.36
2023-01-01T19:31:49.432Z,76.84
2023-01-01T19:34:16.282Z,76.88
2023-01-01T19:36:43.069Z,77.27
2023-01-01T19:39:10.737Z,78.97
2023-01-01T19:41:37.056Z,78.10
2023-01-01T19:44:08.646Z,80.16
2023-01-01T19:46:36.582Z,79.73
2023-01-01T19:49:02.958Z,79.28
2023-01-01T19:51:30.140Z,79.62
2023-01-01T19:53:56.440Z,80.55
2023-01-01T19:56:23.508Z,81.12
2023-01-01T19:58:50.038Z,80.46
2023-01-01T20:01:16.657Z,80.43
2023-01-01T20:03:54.007Z,80.85
2023-01-01T20:06:22.123Z,81.29
2023-01-01T20:08:48.444Z,82.19
2023-01-01T20:11:14.755Z,81.24
2023-01-01T20:13:41.387Z,80.48
2023-01-01T20:16:08.419Z,80.36
2023-01-01T20:18:37.028Z,80.79
2023-01-01T20:21:03.484Z,80.64
2023-01-01T20:23:29.985Z,81.40
2023-01-01T20:25:56.366Z,80.72
2023-01-01T20:28:22.701Z,80.01
2023-01-01T20:30:49.013Z,79.72
2023-01-01T20:33:15.315Z,79.96
2023-01-01T20:35:41.600Z,80.53
2023-01-01T20:38:08.087Z,79.53
2023-01-01T20:40:34.484Z,80.46
2023-01-01T20:43:00.766Z,79.50
2023-01-01T20:45:27.112Z,78.67
2023-01-01T20:47:53.517Z,79.16
2023-01-01T20:50:19.986Z,78.94
2023-01-01T20:52:46.323Z,78.94
2023-01-01T20:55:12.786Z,79.05
2023-01-01T20:57:39.072Z,78.01
2023-01-01T21:00:06.020Z,78.75
2023-01-01T21:02:32.629Z,77.73
2023-01-01T21:04:59.086Z,79.13
2023-01-01T21:07:25.449Z,78.24
2023-01-01T21:09:51.743Z,79.03
2023-01-01T21:12:18.069Z,78.83
2023-01-01T21:14:44.473Z,78.38
2023-01-01T21:17:24.334Z,78.56
2023-01-01T21:19:53.714Z,78.63
2023-01-01T21:22:20.135Z,78.17
2023-01-01T21:24:53.383Z,79.00
2023-01-01T21:27:31.672Z,78.87
2023-01-01T21:29:58.886Z,78.86
2023-01-01T21:32:37.119Z,79.02
2023-01-01T21:35:16.256Z,78.78
2023-01-01T21:37:42.844Z,78.82
2023-01-01T21:40:47.429Z,78.46
2023-01-01T21:43:27.496Z,78.30
2023-01-01T21:45:56.181Z,77.68
2023-01-01T21:48:33.465Z,77.56
2023-01-01T21:51:00.938Z,78.04
2023-01-01T21:53:35.368Z,77.54
2023-01-01T21:56:26.321Z,77.46
2023-01-01T21:58:53.589Z,77.52
2023-01-01T22:01:24.523Z,77.49
2023-01-01T22:04:02.700Z,77.79
2023-01-01T22:06:38.403Z,77.18
2023-01-01T22:09:24.707Z,77.23
2023-01-01T22:11:56.955Z,76.61
2023-01-01T22:14:27.125Z,76.37
2023-01-01T22:16:55.339Z,76.34
2023-01-01T22:19:23.860Z,75.82
2023-01-01T22:21:51.312Z,75.94
2023-01-01T22:24:28.160Z,75.80
2023-01-01T22:26:56.354Z,75.38
2023-01-01T22:29:24.648Z,75.27
2023-01-01T22:32:00.940Z,75.28
2023-01-01T22:34:27.241Z,75.47
2023-01-01T22:36:53.794Z,75.24
2023-01-01T22:39:28.913Z,75.59
2023-01-01T22:41:56.372Z,74.58
2023-01-01T22:44:23.233Z,74.70
2023-01-01T22:46:49.538Z,75.27
2023-01-01T22:49:24.139Z,74.47
2023-01-01T22:51:52.947Z,73.65
2023-01-01T22:54:19.257Z,73.90
2023-01-01T22:56:45.602Z,74.46
2023-01-01T22:59:12.033Z,74.42
2023-01-01T23:01:38.446Z,73.57
2023-01-01T23:04:04.869Z,73.75
2023-01-01T23:06:32.363Z,73.91
2023-01-01T23:08:58.737Z,74.35
2023-01-01T23:11:25.166Z,73.97
2023-01-01T23:13:51.974Z,73.33
2023-01-01T23:16:18.313Z,74.33
2023-01-01T23:18:44.665Z,74.48
2023-01-01T23:21:18.995Z,73.73
2023-01-01T23:23:50.989Z,73.54
2023-01-01T23:26:17.688Z,73.42
2023-01-01T23:28:44.126Z,73.93
2023-01-01T23:31:17.140Z,73.80
2023-01-01T23:33:46.043Z,73.77
2023-01-01T23:36:13.450Z,73.40
2023-01-01T23:38:40.166Z,73.83
2023-01-01T23:41:06.508Z,73.84
2023-01-01T23:43:33.731Z,73.86
2023-01-01T23:46:02.321Z,73.48
2023-01-01T23:48:29.777Z,73.17
2023-01-01T23:50:57.375Z,73.43
2023-01-01T23:53:23.651Z,72.84
2023-01-01T23:55:49.993Z,73.81
2023-01-01T23:58:16.328Z,73.60
